createdAt,value
2018-04-19T00:00:36.062Z,102982.19
2018-04-19T00:03:04.542Z,102981.69
2018-04-19T00:05:32.819Z,102982.34
2018-04-19T00:08:01.802Z,102985.84
2018-04-19T00:10:30.922Z,102979.41
2018-04-19T00:12:59.590Z,102986.16
2018-04-19T00:15:28.643Z,102982.22
2018-04-19T00:17:58.315Z,102978.22
2018-04-19T00:20:27.083Z,102977.51
2018-04-19T00:22:55.382Z,102978.55
2018-04-19T00:25:24.035Z,102975.91
2018-04-19T00:27:53.072Z,102977.27
2018-04-19T00:30:21.543Z,102974.88
2018-04-19T00:32:49.831Z,102975.63
2018-04-19T00:35:18.099Z,102972.59
2018-04-19T00:37:47.233Z,102977.34
2018-04-19T00:40:16.404Z,102969.33
2018-04-19T00:42:44.755Z,102969.02
2018-04-19T00:45:13.624Z,102971.59
2018-04-19T00:47:41.888Z,102969.44
2018-04-19T00:50:10.931Z,102963.67
2018-04-19T00:55:51.726Z,102962.81
2018-04-19T00:58:20.047Z,102964.09
2018-04-19T01:00:49.119Z,102966.75
2018-04-19T01:03:17.722Z,102967.58
2018-04-19T01:05:46.947Z,102960.36
2018-04-19T01:08:15.939Z,102958.03
2018-04-19T01:10:44.250Z,102959.78
2018-04-19T01:13:13.015Z,102955.85
2018-04-19T01:15:41.297Z,102955.66
2018-04-19T01:18:09.566Z,102954.97
2018-04-19T01:20:37.874Z,102959.82
2018-04-19T01:23:07.122Z,102958.42
2018-04-19T01:25:36.281Z,102958.49
2018-04-19T01:28:05.061Z,102955.29
2018-04-19T01:30:33.354Z,102951.34
2018-04-19T01:33:01.627Z,102946.23
2018-04-19T01:35:47.707Z,102955.09
2018-04-19T01:38:15.976Z,102948.45
2018-04-19T01:40:45.086Z,102947.34
2018-04-19T01:43:15.174Z,102941.11
2018-04-19T01:45:43.466Z,102938.10
2018-04-19T01:48:12.393Z,102948.95
2018-04-19T01:50:40.746Z,102947.16
2018-04-19T01:53:09.767Z,102935.20
2018-04-19T01:55:38.043Z,102938.20
2018-04-19T01:58:07.546Z,102944.46
2018-04-19T02:00:36.378Z,102946.18
2018-04-19T02:03:05.510Z,102952.89
2018-04-19T02:05:33.884Z,102946.69
2018-04-19T02:08:05.344Z,102947.00
2018-04-19T02:10:33.622Z,102943.45
2018-04-19T02:13:01.909Z,102942.86
2018-04-19T02:15:30.215Z,102944.42
2018-04-19T02:17:58.620Z,102940.21
2018-04-19T02:20:27.691Z,102942.76
2018-04-19T02:22:55.992Z,102941.30
2018-04-19T02:25:25.743Z,102936.34
2018-04-19T02:27:54.190Z,102936.44
2018-04-19T02:30:24.092Z,102929.80
2018-04-19T02:32:53.227Z,102931.13
2018-04-19T02:35:21.526Z,102931.92
2018-04-19T02:37:51.647Z,102934.16
2018-04-19T02:40:21.210Z,102926.86
2018-04-19T02:42:50.274Z,102927.16
2018-04-19T02:45:18.674Z,102934.23
2018-04-19T02:47:46.961Z,102925.09
2018-04-19T02:50:15.233Z,102931.50
2018-04-19T02:52:44.381Z,102922.05
2018-04-19T02:55:12.794Z,102928.69
2018-04-19T02:57:41.475Z,102923.96
2018-04-19T03:00:10.276Z,102922.88
2018-04-19T03:02:40.304Z,102927.91
2018-04-19T03:05:09.384Z,102922.09
2018-04-19T03:07:38.175Z,102919.83
2018-04-19T03:10:06.472Z,102923.11
2018-04-19T03:12:34.753Z,102917.72
2018-04-19T03:15:03.052Z,102916.82
2018-04-19T03:17:31.966Z,102915.45
2018-04-19T03:20:00.971Z,102918.06
2018-04-19T03:22:29.255Z,102914.95
2018-04-19T03:24:57.573Z,102907.92
2018-04-19T03:27:27.695Z,102910.73
2018-04-19T03:29:56.730Z,102913.88
2018-04-19T03:32:25.006Z,102909.73
2018-04-19T03:34:53.455Z,102907.39
2018-04-19T03:37:23.811Z,102911.69
2018-04-19T03:39:52.922Z,102910.33
2018-04-19T03:42:22.551Z,102903.86
2018-04-19T03:44:50.822Z,102908.85
2018-04-19T03:47:20.003Z,102911.00
2018-04-19T03:49:48.290Z,102918.11
2018-04-19T03:52:17.695Z,102915.77
2018-04-19T03:54:46.830Z,102911.45
2018-04-19T03:57:15.418Z,102913.63
2018-04-19T03:59:43.741Z,102918.45
2018-04-19T04:02:12.679Z,102915.69
2018-04-19T04:04:41.506Z,102916.98
2018-04-19T04:07:09.947Z,102921.03
2018-04-19T04:09:38.573Z,102921.13
2018-04-19T04:12:07.958Z,102918.97
2018-04-19T04:14:38.062Z,102914.76
2018-04-19T04:17:23.974Z,102921.55
2018-04-19T04:23:44.749Z,102908.98
2018-04-19T04:26:13.059Z,102913.94
2018-04-19T04:28:41.355Z,102912.78
2018-04-19T04:31:10.864Z,102915.14
2018-04-19T04:33:39.095Z,102913.38
2018-04-19T04:36:07.410Z,102916.57
2018-04-19T04:38:36.458Z,102909.97
2018-04-19T04:41:05.587Z,102909.11
2018-04-19T04:43:35.743Z,102906.01
2018-04-19T04:46:04.886Z,102911.16
2018-04-19T04:48:33.955Z,102905.28
2018-04-19T04:51:02.221Z,102910.80
2018-04-19T04:53:30.973Z,102909.98
2018-04-19T04:56:00.651Z,102914.88
2018-04-19T04:58:28.934Z,102914.84
2018-04-19T05:00:57.409Z,102916.52
2018-04-19T05:03:26.323Z,102910.81
2018-04-19T05:05:55.273Z,102921.17
2018-04-19T05:08:24.226Z,102916.43
2018-04-19T05:10:52.562Z,102917.27
2018-04-19T05:13:20.851Z,102920.12
2018-04-19T05:15:49.132Z,102916.86
2018-04-19T05:18:18.462Z,102918.86
2018-04-19T05:20:47.687Z,102917.61
2018-04-19T05:23:17.409Z,102915.02
2018-04-19T05:25:46.482Z,102915.36
2018-04-19T05:28:15.627Z,102916.56
2018-04-19T05:30:45.264Z,102920.22
2018-04-19T05:33:15.148Z,102915.55
2018-04-19T05:35:43.462Z,102912.70
2018-04-19T05:38:11.850Z,102915.63
2018-04-19T05:40:40.134Z,102913.09
2018-04-19T05:43:08.455Z,102921.45
2018-04-19T05:45:37.978Z,102922.23
2018-04-19T05:48:06.295Z,102915.91
2018-04-19T05:50:35.530Z,102915.52
2018-04-19T05:53:04.446Z,102914.63
2018-04-19T05:55:32.954Z,102919.94
2018-04-19T05:58:01.264Z,102918.74
2018-04-19T06:00:30.310Z,102914.47
2018-04-19T06:02:58.688Z,102917.33
2018-04-19T06:05:26.978Z,102922.45
2018-04-19T06:07:55.255Z,102925.58
2018-04-19T06:10:23.578Z,102920.46
2018-04-19T06:12:52.967Z,102913.80
2018-04-19T06:15:21.295Z,102914.64
2018-04-19T06:17:49.582Z,102914.37
2018-04-19T06:20:19.703Z,102907.77
2018-04-19T06:22:48.198Z,102913.94
2018-04-19T06:25:16.567Z,102915.60
2018-04-19T06:27:45.189Z,102906.64
2018-04-19T06:30:13.495Z,102913.45
2018-04-19T06:32:42.338Z,102918.02
2018-04-19T06:35:11.053Z,102910.32
2018-04-19T06:37:40.412Z,102911.86
2018-04-19T06:40:08.722Z,102915.91
2018-04-19T06:42:37.100Z,102918.16
2018-04-19T06:45:06.049Z,102920.13
2018-04-19T06:47:34.354Z,102924.29
2018-04-19T06:50:02.622Z,102913.33
2018-04-19T06:52:31.083Z,102920.19
2018-04-19T06:54:59.384Z,102917.59
2018-04-19T06:57:28.249Z,102921.66
2018-04-19T06:59:56.666Z,102924.70
2018-04-19T07:02:25.725Z,102924.52
2018-04-19T07:04:54.875Z,102920.53
2018-04-19T07:07:23.390Z,102913.84
2018-04-19T07:09:52.541Z,102923.08
2018-04-19T07:12:21.036Z,102917.86
2018-04-19T07:14:50.490Z,102917.79
2018-04-19T07:17:18.909Z,102919.97
2018-04-19T07:19:47.190Z,102914.23
2018-04-19T07:22:15.512Z,102916.25
2018-04-19T07:24:44.627Z,102920.41
2018-04-19T07:27:14.299Z,102914.12
2018-04-19T07:29:43.131Z,102911.22
2018-04-19T07:32:11.557Z,102910.57
2018-04-19T07:34:39.892Z,102915.39
2018-04-19T07:37:08.730Z,102907.27
2018-04-19T07:39:37.631Z,102911.45
2018-04-19T07:42:05.941Z,102906.64
2018-04-19T07:44:34.498Z,102909.33
2018-04-19T07:47:02.838Z,102911.14
2018-04-19T07:49:31.130Z,102906.15
2018-04-19T07:51:59.710Z,102914.09
2018-04-19T07:54:28.691Z,102908.81
2018-04-19T07:56:57.075Z,102906.33
2018-04-19T07:59:25.971Z,102913.69
2018-04-19T08:01:54.751Z,102913.11
2018-04-19T08:04:24.118Z,102912.80
2018-04-19T08:06:52.450Z,102912.45
2018-04-19T08:09:20.980Z,102914.03
2018-04-19T08:11:50.855Z,102914.46
2018-04-19T08:14:19.215Z,102915.34
2018-04-19T08:16:48.290Z,102915.50
2018-04-19T08:19:17.313Z,102915.64
2018-04-19T08:21:45.916Z,102915.32
2018-04-19T08:24:14.578Z,102915.70
2018-04-19T08:26:43.614Z,102912.35
2018-04-19T08:29:12.699Z,102913.25
2018-04-19T08:31:41.398Z,102915.49
2018-04-19T08:34:10.534Z,102904.12
2018-04-19T08:36:39.370Z,102903.34
2018-04-19T08:39:07.755Z,102904.30
2018-04-19T08:41:36.461Z,102902.56
2018-04-19T08:44:05.631Z,102903.42
2018-04-19T08:46:34.238Z,102895.89
2018-04-19T08:49:03.328Z,102900.58
2018-04-19T08:51:31.653Z,102897.23
2018-04-19T08:54:00.049Z,102897.21
2018-04-19T08:56:28.981Z,102890.91
2018-04-19T08:58:57.230Z,102887.09
2018-04-19T09:01:26.399Z,102889.64
2018-04-19T09:03:55.298Z,102890.09
2018-04-19T09:06:24.020Z,102885.00
2018-04-19T09:08:52.311Z,102880.80
2018-04-19T09:11:20.638Z,102886.27
2018-04-19T09:13:48.910Z,102890.50
2018-04-19T09:16:17.190Z,102890.06
2018-04-19T09:18:46.367Z,102894.72
2018-04-19T09:21:16.263Z,102888.77
2018-04-19T09:23:44.599Z,102887.46
2018-04-19T09:26:14.279Z,102890.39
2018-04-19T09:28:42.607Z,102890.00
2018-04-19T09:31:10.971Z,102886.14
2018-04-19T09:33:39.250Z,102894.63
2018-04-19T09:36:08.052Z,102888.23
2018-04-19T09:38:37.164Z,102887.81
2018-04-19T09:41:06.056Z,102887.77
2018-04-19T09:43:34.990Z,102888.59
2018-04-19T09:46:03.277Z,102882.20
2018-04-19T09:48:32.160Z,102885.45
2018-04-19T09:51:01.112Z,102881.23
2018-04-19T09:53:31.390Z,102877.36
2018-04-19T09:56:00.595Z,102879.00
2018-04-19T09:58:28.921Z,102879.78
2018-04-19T10:01:03.508Z,102873.86
2018-04-19T10:03:37.489Z,102878.28
2018-04-19T10:06:08.669Z,102870.97
2018-04-19T10:08:39.690Z,102869.69
2018-04-19T10:11:08.089Z,102870.20
2018-04-19T10:13:36.569Z,102868.00
2018-04-19T10:16:06.679Z,102867.55
2018-04-19T10:18:36.671Z,102860.59
2018-04-19T10:21:06.507Z,102866.50
2018-04-19T10:23:34.802Z,102857.11
2018-04-19T10:26:03.193Z,102857.14
2018-04-19T10:28:31.592Z,102855.41
2018-04-19T10:31:00.524Z,102848.67
2018-04-19T10:33:28.955Z,102849.52
2018-04-19T10:35:57.363Z,102848.03
2018-04-19T10:38:25.944Z,102836.75
2018-04-19T10:40:54.744Z,102834.39
2018-04-19T10:43:23.938Z,102832.95
2018-04-19T10:45:52.985Z,102830.37
2018-04-19T10:48:22.115Z,102824.84
2018-04-19T10:50:50.461Z,102827.65
2018-04-19T10:53:19.615Z,102816.13
2018-04-19T10:55:49.902Z,102819.58
2018-04-19T10:58:19.050Z,102815.28
2018-04-19T11:00:47.324Z,102816.81
2018-04-19T11:03:16.377Z,102811.27
2018-04-19T11:05:44.660Z,102812.88
2018-04-19T11:08:13.015Z,102812.22
2018-04-19T11:10:41.312Z,102805.53
2018-04-19T11:13:10.345Z,102805.47
2018-04-19T11:15:39.782Z,102807.07
2018-04-19T11:18:08.071Z,102803.77
2018-04-19T11:20:37.157Z,102800.50
2018-04-19T11:23:05.487Z,102793.85
2018-04-19T11:25:33.754Z,102792.36
2018-04-19T11:28:02.669Z,102794.84
2018-04-19T11:30:31.802Z,102790.97
2018-04-19T11:33:00.140Z,102791.34
2018-04-19T11:35:29.538Z,102790.00
2018-04-19T11:37:59.546Z,102781.77
2018-04-19T11:40:28.714Z,102781.17
2018-04-19T11:42:57.458Z,102779.37
2018-04-19T11:45:27.190Z,102780.03
2018-04-19T11:47:56.132Z,102777.12
2018-04-19T11:50:24.542Z,102777.56
2018-04-19T11:52:53.677Z,102769.70
2018-04-19T11:55:23.231Z,102759.70
2018-04-19T11:57:51.529Z,102760.86
2018-04-19T12:00:20.582Z,102766.20
2018-04-19T12:02:49.387Z,102767.76
2018-04-19T12:05:18.424Z,102764.94
2018-04-19T12:07:47.088Z,102768.63
2018-04-19T12:10:16.283Z,102754.82
2018-04-19T12:12:45.317Z,102759.44
2018-04-19T12:15:13.827Z,102765.50
2018-04-19T12:17:42.103Z,102760.62
2018-04-19T12:20:10.378Z,102759.88
2018-04-19T12:22:38.750Z,102753.80
2018-04-19T12:25:07.031Z,102749.74
2018-04-19T12:27:35.407Z,102751.67
2018-04-19T12:30:03.683Z,102743.78
2018-04-19T12:32:31.969Z,102735.66
2018-04-19T12:35:00.274Z,102729.79
2018-04-19T12:37:29.165Z,102727.27
2018-04-19T12:39:58.020Z,102730.38
2018-04-19T12:42:26.513Z,102715.89
2018-04-19T12:44:55.858Z,102708.69
2018-04-19T12:47:24.925Z,102704.83
2018-04-19T12:49:53.601Z,102708.08
2018-04-19T12:52:21.878Z,102713.50
2018-04-19T12:54:50.813Z,102708.59
2018-04-19T12:57:19.904Z,102707.70
2018-04-19T12:59:48.178Z,102707.25
2018-04-19T13:02:16.446Z,102693.70
2018-04-19T13:04:45.158Z,102706.69
2018-04-19T13:07:14.306Z,102702.92
2018-04-19T13:09:42.574Z,102688.22
2018-04-19T13:12:11.163Z,102689.50
2018-04-19T13:14:39.443Z,102679.30
2018-04-19T13:17:08.769Z,102678.74
2018-04-19T13:19:37.072Z,102677.72
2018-04-19T13:22:06.187Z,102674.75
2018-04-19T13:24:34.464Z,102686.00
2018-04-19T13:27:02.790Z,102681.34
2018-04-19T13:29:31.081Z,102676.22
2018-04-19T13:32:00.342Z,102671.53
2018-04-19T13:34:28.683Z,102668.11
2018-04-19T13:36:57.770Z,102664.73
2018-04-19T13:39:26.051Z,102664.66
2018-04-19T13:41:56.000Z,102653.17
2018-04-19T13:44:24.284Z,102654.19
2018-04-19T13:46:52.556Z,102654.47
2018-04-19T13:49:21.591Z,102652.30
2018-04-19T13:51:49.859Z,102650.34
2018-04-19T13:54:18.154Z,102639.87
2018-04-19T13:56:46.467Z,102639.23
2018-04-19T13:59:14.829Z,102639.55
2018-04-19T14:01:43.129Z,102636.37
2018-04-19T14:04:13.132Z,102632.38
2018-04-19T14:06:42.246Z,102626.85
2018-04-19T14:09:11.352Z,102625.89
2018-04-19T14:11:39.642Z,102620.64
2018-04-19T14:14:08.030Z,102625.39
2018-04-19T14:16:36.414Z,102616.64
2018-04-19T14:19:05.502Z,102616.52
2018-04-19T14:21:33.810Z,102617.58
2018-04-19T14:24:02.085Z,102613.34
2018-04-19T14:26:30.457Z,102615.80
2018-04-19T14:28:58.847Z,102613.79
2018-04-19T14:31:29.280Z,102605.67
2018-04-19T14:33:57.684Z,102613.98
2018-04-19T14:36:26.902Z,102612.92
2018-04-19T14:38:55.783Z,102610.70
2018-04-19T14:41:25.116Z,102606.67
2018-04-19T14:43:54.182Z,102599.69
2018-04-19T14:46:23.577Z,102597.48
2018-04-19T14:48:53.283Z,102600.88
2018-04-19T14:51:21.602Z,102592.98
2018-04-19T14:53:50.018Z,102598.48
2018-04-19T14:56:18.310Z,102604.09
2018-04-19T14:58:47.523Z,102589.44
2018-04-19T15:01:16.618Z,102596.07
2018-04-19T15:03:45.681Z,102590.66
2018-04-19T15:06:13.974Z,102592.08
2018-04-19T15:08:42.431Z,102583.00
2018-04-19T15:11:10.703Z,102589.92
2018-04-19T15:13:39.722Z,102586.91
2018-04-19T15:16:08.351Z,102583.22
2018-04-19T15:18:37.354Z,102576.27
2018-04-19T15:21:05.634Z,102580.36
2018-04-19T15:23:33.947Z,102581.70
2018-04-19T15:26:02.250Z,102575.34
2018-04-19T15:28:30.519Z,102572.39
2018-04-19T15:30:59.431Z,102568.30
2018-04-19T15:33:27.700Z,102573.36
2018-04-19T15:35:55.994Z,102569.70
2018-04-19T15:38:25.103Z,102567.80
2018-04-19T15:40:53.362Z,102566.85
2018-04-19T15:43:22.954Z,102565.95
2018-04-19T15:45:51.250Z,102564.09
2018-04-19T15:48:20.618Z,102564.19
2018-04-19T15:50:48.895Z,102557.39
2018-04-19T15:53:17.263Z,102562.68
2018-04-19T15:55:45.655Z,102556.94
2018-04-19T15:58:14.546Z,102556.27
2018-04-19T16:00:43.121Z,102564.27
2018-04-19T16:03:11.394Z,102558.02
2018-04-19T16:05:39.929Z,102557.02
2018-04-19T16:08:08.969Z,102557.22
2018-04-19T16:10:38.321Z,102544.25
2018-04-19T16:13:08.410Z,102554.94
2018-04-19T16:15:37.326Z,102544.09
2018-04-19T16:18:06.120Z,102544.44
2018-04-19T16:20:34.415Z,102549.41
2018-04-19T16:23:03.482Z,102543.00
2018-04-19T16:25:31.793Z,102540.49
2018-04-19T16:28:00.846Z,102532.22
2018-04-19T16:30:29.119Z,102540.84
2018-04-19T16:32:57.900Z,102531.95
2018-04-19T16:35:26.447Z,102525.17
2018-04-19T16:37:54.737Z,102524.41
2018-04-19T16:40:23.896Z,102525.80
2018-04-19T16:42:52.187Z,102521.22
2018-04-19T16:45:21.330Z,102518.32
2018-04-19T16:47:49.639Z,102523.23
2018-04-19T16:50:18.642Z,102518.70
2018-04-19T16:52:47.658Z,102516.27
2018-04-19T16:55:16.777Z,102522.06
2018-04-19T16:57:45.051Z,102514.41
2018-04-19T17:00:14.427Z,102522.78
2018-04-19T17:02:43.490Z,102523.70
2018-04-19T17:05:11.767Z,102520.73
2018-04-19T17:07:41.551Z,102519.39
2018-04-19T17:10:09.851Z,102524.53
2018-04-19T17:12:38.139Z,102518.47
2018-04-19T17:15:06.634Z,102516.61
2018-04-19T17:17:34.964Z,102522.00
2018-04-19T17:20:03.311Z,102518.66
2018-04-19T17:22:33.198Z,102518.59
2018-04-19T17:25:01.720Z,102516.41
2018-04-19T17:27:31.060Z,102518.66
2018-04-19T17:29:59.354Z,102521.77
2018-04-19T17:32:28.430Z,102521.22
2018-04-19T17:34:56.758Z,102520.79
2018-04-19T17:37:25.727Z,102519.73
2018-04-19T17:39:54.002Z,102520.20
2018-04-19T17:42:22.332Z,102514.48
2018-04-19T17:44:51.380Z,102521.77
2018-04-19T17:47:20.720Z,102516.24
2018-04-19T17:49:49.749Z,102519.50
2018-04-19T17:52:18.577Z,102517.59
2018-04-19T17:54:47.160Z,102510.66
2018-04-19T17:57:15.532Z,102523.45
2018-04-19T17:59:44.480Z,102522.26
2018-04-19T18:02:12.779Z,102521.25
2018-04-19T18:04:41.163Z,102517.13
2018-04-19T18:07:10.314Z,102518.77
2018-04-19T18:09:40.451Z,102513.25
2018-04-19T18:12:08.727Z,102516.75
2018-04-19T18:14:37.079Z,102515.68
2018-04-19T18:17:05.868Z,102511.39
2018-04-19T18:19:34.204Z,102523.95
2018-04-19T18:22:02.570Z,102521.92
2018-04-19T18:24:32.698Z,102518.87
2018-04-19T18:27:01.593Z,102522.05
2018-04-19T18:29:29.867Z,102526.16
2018-04-19T18:31:58.147Z,102531.52
2018-04-19T18:34:26.517Z,102529.94
2018-04-19T18:36:55.149Z,102530.52
2018-04-19T18:39:24.671Z,102533.19
2018-04-19T18:41:53.010Z,102536.41
2018-04-19T18:44:21.282Z,102536.55
2018-04-19T18:46:49.600Z,102538.81
2018-04-19T18:49:17.935Z,102536.67
2018-04-19T18:51:46.210Z,102539.70
2018-04-19T18:54:14.491Z,102548.26
2018-04-19T18:56:42.866Z,102548.68
2018-04-19T18:59:11.168Z,102552.27
2018-04-19T19:01:40.370Z,102546.57
2018-04-19T19:04:09.542Z,102547.06
2018-04-19T19:06:38.287Z,102547.17
2018-04-19T19:09:07.511Z,102547.20
2018-04-19T19:11:37.123Z,102548.49
2018-04-19T19:14:05.431Z,102543.84
2018-04-19T19:16:33.711Z,102545.58
2018-04-19T19:19:20.031Z,102553.60
2018-04-19T19:21:48.278Z,102551.47
2018-04-19T19:24:16.559Z,102552.73
2018-04-19T19:26:45.141Z,102552.34
2018-04-19T19:29:13.417Z,102554.02
2018-04-19T19:31:42.562Z,102555.27
2018-04-19T19:34:10.881Z,102559.89
2018-04-19T19:36:39.151Z,102559.89
2018-04-19T19:39:07.550Z,102550.59
2018-04-19T19:41:37.366Z,102554.41
2018-04-19T19:44:06.363Z,102558.20
2018-04-19T19:46:36.654Z,102552.63
2018-04-19T19:49:05.950Z,102555.13
2018-04-19T19:51:35.011Z,102553.36
2018-04-19T19:54:03.823Z,102558.81
2018-04-19T19:56:32.690Z,102555.38
2018-04-19T19:59:00.987Z,102555.36
2018-04-19T20:01:29.399Z,102557.44
2018-04-19T20:03:58.108Z,102552.75
2018-04-19T20:06:27.207Z,102556.09
2018-04-19T20:08:55.500Z,102552.52
2018-04-19T20:11:23.928Z,102554.09
2018-04-19T20:13:54.229Z,102557.39
2018-04-19T20:16:23.811Z,102556.52
2018-04-19T20:18:52.084Z,102557.73
2018-04-19T20:21:20.607Z,102554.73
2018-04-19T20:23:49.253Z,102548.52
2018-04-19T20:26:17.535Z,102546.04
2018-04-19T20:28:45.850Z,102550.23
2018-04-19T20:31:14.571Z,102540.00
2018-04-19T20:33:42.851Z,102540.82
2018-04-19T20:36:11.763Z,102540.75
2018-04-19T20:38:40.271Z,102540.75
2018-04-19T20:41:09.275Z,102539.17
2018-04-19T20:43:37.585Z,102537.48
2018-04-19T20:46:06.669Z,102531.19
2018-04-19T20:48:35.731Z,102527.42
2018-04-19T20:51:04.002Z,102527.45
2018-04-19T20:53:32.312Z,102533.84
2018-04-19T20:56:01.156Z,102529.13
2018-04-19T20:58:30.220Z,102523.58
2018-04-19T21:01:00.084Z,102526.14
2018-04-19T21:03:28.444Z,102522.80
2018-04-19T21:05:58.433Z,102521.12
2018-04-19T21:08:27.527Z,102520.31
2018-04-19T21:10:56.632Z,102514.50
2018-04-19T21:13:24.922Z,102510.75
2018-04-19T21:15:54.155Z,102514.53
2018-04-19T21:18:23.122Z,102513.64
2018-04-19T21:20:51.511Z,102507.78
2018-04-19T21:23:20.699Z,102506.89
2018-04-19T21:25:48.973Z,102507.80
2018-04-19T21:28:18.247Z,102499.52
2018-04-19T21:30:47.192Z,102495.79
2018-04-19T21:33:15.503Z,102494.05
2018-04-19T21:35:43.852Z,102482.28
2018-04-19T21:38:12.127Z,102490.38
2018-04-19T21:40:40.435Z,102487.77
2018-04-19T21:43:08.713Z,102487.30
2018-04-19T21:45:37.000Z,102489.07
2018-04-19T21:48:05.998Z,102489.94
2018-04-19T21:50:35.039Z,102484.02
2018-04-19T21:53:03.850Z,102479.78
2018-04-19T21:55:32.950Z,102479.79
2018-04-19T21:58:02.075Z,102475.59
2018-04-19T22:00:31.143Z,102470.50
2018-04-19T22:03:00.123Z,102471.77
2018-04-19T22:05:29.475Z,102460.84
2018-04-19T22:07:58.630Z,102462.06
2018-04-19T22:10:26.976Z,102458.27
2018-04-19T22:12:55.262Z,102453.30
2018-04-19T22:15:24.401Z,102454.49
2018-04-19T22:17:53.162Z,102458.31
2018-04-19T22:20:22.336Z,102450.24
2018-04-19T22:22:50.607Z,102453.13
2018-04-19T22:25:19.639Z,102454.75
2018-04-19T22:27:47.935Z,102449.74
2018-04-19T22:30:16.721Z,102450.10
2018-04-19T22:32:45.611Z,102452.05
2018-04-19T22:35:14.573Z,102444.87
2018-04-19T22:37:43.268Z,102442.63
2018-04-19T22:40:11.542Z,102443.47
2018-04-19T22:42:40.568Z,102440.39
2018-04-19T22:45:08.914Z,102447.05
2018-04-19T22:47:38.835Z,102432.42
2018-04-19T22:50:07.894Z,102441.66
2018-04-19T22:52:36.954Z,102432.84
2018-04-19T22:55:06.179Z,102430.89
2018-04-19T22:57:35.293Z,102428.01
2018-04-19T23:00:04.735Z,102425.07
2018-04-19T23:02:33.026Z,102426.06
2018-04-19T23:05:01.319Z,102430.98
2018-04-19T23:07:29.617Z,102427.12
2018-04-19T23:09:58.724Z,102422.42
2018-04-19T23:12:27.782Z,102424.05
2018-04-19T23:14:56.751Z,102424.96
2018-04-19T23:17:25.411Z,102420.74
2018-04-19T23:19:55.568Z,102416.97
2018-04-19T23:22:41.694Z,102416.85
2018-04-19T23:25:10.385Z,102420.06
2018-04-19T23:27:38.771Z,102415.47
2018-04-19T23:30:07.392Z,102422.10
2018-04-19T23:32:39.108Z,102422.97
2018-04-19T23:35:07.563Z,102418.77
2018-04-19T23:37:35.849Z,102418.27
2018-04-19T23:40:05.055Z,102415.16
2018-04-19T23:42:34.246Z,102410.45
2018-04-19T23:45:02.931Z,102411.16
2018-04-19T23:47:31.601Z,102406.85
2018-04-19T23:50:00.624Z,102403.47
2018-04-19T23:52:30.993Z,102396.19
2018-04-19T23:55:00.123Z,102398.66
2018-04-19T23:57:28.514Z,102393.63
2018-04-19T23:59:58.083Z,102393.22
